KOKC/OKC METAR and TAF weather

Enter ICAO airport designator
Station Type Date Time Source
KOKC METAR 2019/04/19 09:52 UTC NOAA

KOKC 190952Z 36016KT 10SM CLR 09/03 A2999 RMK AO2 SLP150 T00890033


Station Type Date Time Source
KOKC Decoded METAR 2019/04/19 09:52 UTC NOAA

WILL ROGERS WORLD AIRPORT, OK, United States (KOKC) 35-23N 97-36W 390M
Apr 19, 2019 - 05:52 AM EDT / 2019.04.19 0952 UTC
Wind: from the N (360 degrees) at 18 MPH (16 KT):0
Visibility: 10 mile(s):0
Sky conditions: clear
Temperature: 48.0 F (8.9 C)
Dew Point: 37.9 F (3.3 C)
Relative Humidity: 67%
Pressure (altimeter): 29.99 in. Hg (1015 hPa)
ob: KOKC 190952Z 36016KT 10SM CLR 09/03 A2999 RMK AO2 SLP150 T00890033
cycle: 10

Station Type Date Time Source
KOKC TAF 2019/04/19 06:22 UTC NOAA

TAF KOKC 190520Z 1906/2006 33013KT P6SM SCT120
FM191400 34016G24KT P6SM SKC
FM200100 04005KT P6SM SKC

Example: see airport list